sensor_id;sensor_type;location;lat;lon;timestamp;pressure;altitude;pressure_sealevel;temperature;humidity
50282;BME280;36176;51.506;10.272;2023-04-06T00:02:23;99838.69;;;-2.46;81.47
50282;BME280;36176;51.506;10.272;2023-04-06T00:04:50;99836.88;;;-2.54;81.63
50282;BME280;36176;51.506;10.272;2023-04-06T00:07:17;99830.75;;;-2.60;82.23
50282;BME280;36176;51.506;10.272;2023-04-06T00:09:44;99839.34;;;-2.64;82.70
50282;BME280;36176;51.506;10.272;2023-04-06T00:12:11;99835.06;;;-2.63;82.19
50282;BME280;36176;51.506;10.272;2023-04-06T00:14:38;99832.47;;;-2.62;81.87
50282;BME280;36176;51.506;10.272;2023-04-06T00:17:05;99828.13;;;-2.61;82.17
50282;BME280;36176;51.506;10.272;2023-04-06T00:19:32;99826.41;;;-2.62;82.05
50282;BME280;36176;51.506;10.272;2023-04-06T00:21:59;99829.84;;;-2.65;82.44
50282;BME280;36176;51.506;10.272;2023-04-06T00:24:26;99823.72;;;-2.68;83.01
50282;BME280;36176;51.506;10.272;2023-04-06T00:26:53;99825.50;;;-2.66;82.50
50282;BME280;36176;51.506;10.272;2023-04-06T00:29:20;99829.84;;;-2.65;83.04
50282;BME280;36176;51.506;10.272;2023-04-06T00:31:47;99818.59;;;-2.64;83.32
50282;BME280;36176;51.506;10.272;2023-04-06T00:34:14;99818.66;;;-2.59;83.09
50282;BME280;36176;51.506;10.272;2023-04-06T00:36:42;99822.16;;;-2.55;83.05
50282;BME280;36176;51.506;10.272;2023-04-06T00:39:10;99818.69;;;-2.54;82.57
50282;BME280;36176;51.506;10.272;2023-04-06T00:41:37;99825.66;;;-2.53;83.02
50282;BME280;36176;51.506;10.272;2023-04-06T00:44:04;99816.97;;;-2.55;84.58
50282;BME280;36176;51.506;10.272;2023-04-06T00:46:31;99816.09;;;-2.58;84.05
50282;BME280;36176;51.506;10.272;2023-04-06T00:48:58;99806.56;;;-2.57;84.09
50282;BME280;36176;51.506;10.272;2023-04-06T00:51:25;99810.06;;;-2.55;84.17
50282;BME280;36176;51.506;10.272;2023-04-06T00:53:52;99813.50;;;-2.54;84.09
50282;BME280;36176;51.506;10.272;2023-04-06T00:56:19;99805.72;;;-2.56;83.55
50282;BME280;36176;51.506;10.272;2023-04-06T00:58:46;99802.19;;;-2.61;83.61
50282;BME280;36176;51.506;10.272;2023-04-06T01:01:13;99797.84;;;-2.64;83.66
50282;BME280;36176;51.506;10.272;2023-04-06T01:03:40;99796.13;;;-2.62;83.68
50282;BME280;36176;51.506;10.272;2023-04-06T01:06:08;99791.81;;;-2.61;84.52
50282;BME280;36176;51.506;10.272;2023-04-06T01:08:36;99794.38;;;-2.66;84.37
50282;BME280;36176;51.506;10.272;2023-04-06T01:11:03;99789.97;;;-2.71;84.71
50282;BME280;36176;51.506;10.272;2023-04-06T01:13:30;99790.88;;;-2.69;85.06
50282;BME280;36176;51.506;10.272;2023-04-06T01:15:57;99786.53;;;-2.70;84.32
50282;BME280;36176;51.506;10.272;2023-04-06T01:18:28;99781.34;;;-2.69;84.37
50282;BME280;36176;51.506;10.272;2023-04-06T01:20:55;99780.47;;;-2.72;84.17
50282;BME280;36176;51.506;10.272;2023-04-06T01:23:22;99776.06;;;-2.80;83.81
50282;BME280;36176;51.506;10.272;2023-04-06T01:25:49;99781.19;;;-2.84;84.13
50282;BME280;36176;51.506;10.272;2023-04-06T01:28:16;99770.78;;;-2.86;84.13
50282;BME280;36176;51.506;10.272;2023-04-06T01:30:43;99776.78;;;-2.91;84.06
50282;BME280;36176;51.506;10.272;2023-04-06T01:33:10;99774.16;;;-2.93;84.36
50282;BME280;36176;51.506;10.272;2023-04-06T01:35:37;99769.78;;;-2.98;84.72
50282;BME280;36176;51.506;10.272;2023-04-06T01:38:04;99770.56;;;-3.04;85.18
50282;BME280;36176;51.506;10.272;2023-04-06T01:40:31;99761.03;;;-3.07;84.95
50282;BME280;36176;51.506;10.272;2023-04-06T01:42:58;99767.84;;;-3.15;84.75
50282;BME280;36176;51.506;10.272;2023-04-06T01:45:25;99763.47;;;-3.21;85.40
50282;BME280;36176;51.506;10.272;2023-04-06T01:47:52;99763.41;;;-3.25;85.70
50282;BME280;36176;51.506;10.272;2023-04-06T01:50:19;99764.22;;;-3.29;84.99
50282;BME280;36176;51.506;10.272;2023-04-06T01:52:46;99761.59;;;-3.31;85.83
50282;BME280;36176;51.506;10.272;2023-04-06T01:55:13;99765.03;;;-3.32;85.76
50282;BME280;36176;51.506;10.272;2023-04-06T01:57:40;99755.47;;;-3.36;85.58
50282;BME280;36176;51.506;10.272;2023-04-06T02:00:07;99755.47;;;-3.37;86.32
50282;BME280;36176;51.506;10.272;2023-04-06T02:02:35;99752.88;;;-3.36;85.92
50282;BME280;36176;51.506;10.272;2023-04-06T02:05:02;99757.19;;;-3.36;87.08
50282;BME280;36176;51.506;10.272;2023-04-06T02:07:29;99755.47;;;-3.37;85.95
50282;BME280;36176;51.506;10.272;2023-04-06T02:09:56;99758.91;;;-3.38;86.11
50282;BME280;36176;51.506;10.272;2023-04-06T02:12:23;99757.16;;;-3.39;85.91
50282;BME280;36176;51.506;10.272;2023-04-06T02:14:50;99755.38;;;-3.44;86.78
50282;BME280;36176;51.506;10.272;2023-04-06T02:17:17;99756.25;;;-3.45;86.30
50282;BME280;36176;51.506;10.272;2023-04-06T02:19:44;99756.19;;;-3.49;86.70
50282;BME280;36176;51.506;10.272;2023-04-06T02:22:12;99754.41;;;-3.52;86.63
50282;BME280;36176;51.506;10.272;2023-04-06T02:24:39;99759.59;;;-3.52;86.31
50282;BME280;36176;51.506;10.272;2023-04-06T02:27:06;99751.72;;;-3.58;86.05
50282;BME280;36176;51.506;10.272;2023-04-06T02:29:33;99756.88;;;-3.59;86.36
50282;BME280;36176;51.506;10.272;2023-04-06T02:31:59;99761.19;;;-3.60;86.33
50282;BME280;36176;51.506;10.272;2023-04-06T02:34:26;99762.09;;;-3.58;86.29
50282;BME280;36176;51.506;10.272;2023-04-06T02:36:53;99762.06;;;-3.59;86.23
50282;BME280;36176;51.506;10.272;2023-04-06T02:39:20;99761.16;;;-3.63;85.96
50282;BME280;36176;51.506;10.272;2023-04-06T02:41:47;99757.69;;;-3.64;86.79
50282;BME280;36176;51.506;10.272;2023-04-06T02:44:14;99756.81;;;-3.64;86.47
50282;BME280;36176;51.506;10.272;2023-04-06T02:46:41;99756.75;;;-3.67;86.69
50282;BME280;36176;51.506;10.272;2023-04-06T02:49:08;99750.69;;;-3.71;86.33
50282;BME280;36176;51.506;10.272;2023-04-06T02:51:36;99752.34;;;-3.74;86.39
50282;BME280;36176;51.506;10.272;2023-04-06T02:54:03;99750.59;;;-3.77;85.46
50282;BME280;36176;51.506;10.272;2023-04-06T02:56:30;99753.22;;;-3.75;87.06
50282;BME280;36176;51.506;10.272;2023-04-06T02:58:58;99756.63;;;-3.78;86.45
50282;BME280;36176;51.506;10.272;2023-04-06T03:01:26;99752.22;;;-3.82;86.10
50282;BME280;36176;51.506;10.272;2023-04-06T03:03:53;99754.78;;;-3.83;87.68
50282;BME280;36176;51.506;10.272;2023-04-06T03:06:20;99759.09;;;-3.84;87.34
50282;BME280;36176;51.506;10.272;2023-04-06T03:08:47;99745.34;;;-3.83;87.70
50282;BME280;36176;51.506;10.272;2023-04-06T03:11:14;99757.38;;;-3.83;88.65
50282;BME280;36176;51.506;10.272;2023-04-06T03:13:40;99757.41;;;-3.82;89.08
50282;BME280;36176;51.506;10.272;2023-04-06T03:16:08;99749.63;;;-3.83;88.47
50282;BME280;36176;51.506;10.272;2023-04-06T03:18:35;99755.63;;;-3.86;88.33
50282;BME280;36176;51.506;10.272;2023-04-06T03:21:02;99755.63;;;-3.88;89.48
50282;BME280;36176;51.506;10.272;2023-04-06T03:23:29;99749.47;;;-3.93;88.72
50282;BME280;36176;51.506;10.272;2023-04-06T03:25:56;99741.69;;;-3.93;88.02
50282;BME280;36176;51.506;10.272;2023-04-06T03:28:23;99752.91;;;-3.94;88.12
50282;BME280;36176;51.506;10.272;2023-04-06T03:30:50;99754.63;;;-3.94;88.26
50282;BME280;36176;51.506;10.272;2023-04-06T03:33:17;99746.84;;;-3.97;88.40
50282;BME280;36176;51.506;10.272;2023-04-06T03:35:44;99757.97;;;-4.00;87.64
50282;BME280;36176;51.506;10.272;2023-04-06T03:38:11;99751.94;;;-4.02;88.13
50282;BME280;36176;51.506;10.272;2023-04-06T03:40:38;99749.34;;;-4.02;87.60
50282;BME280;36176;51.506;10.272;2023-04-06T03:43:05;99750.19;;;-4.04;88.36
50282;BME280;36176;51.506;10.272;2023-04-06T03:45:32;99748.38;;;-4.09;88.27
50282;BME280;36176;51.506;10.272;2023-04-06T03:47:59;99754.38;;;-4.10;87.95
50282;BME280;36176;51.506;10.272;2023-04-06T03:50:25;99757.78;;;-4.12;88.26
50282;BME280;36176;51.506;10.272;2023-04-06T03:52:53;99755.16;;;-4.15;88.30
50282;BME280;36176;51.506;10.272;2023-04-06T03:55:20;99761.19;;;-4.16;88.04
50282;BME280;36176;51.506;10.272;2023-04-06T03:57:46;99765.44;;;-4.20;87.14
50282;BME280;36176;51.506;10.272;2023-04-06T04:00:14;99764.53;;;-4.22;88.00
50282;BME280;36176;51.506;10.272;2023-04-06T04:02:41;99761.03;;;-4.24;87.60
50282;BME280;36176;51.506;10.272;2023-04-06T04:05:08;99765.34;;;-4.24;87.23
50282;BME280;36176;51.506;10.272;2023-04-06T04:07:35;99766.22;;;-4.25;87.35
50282;BME280;36176;51.506;10.272;2023-04-06T04:10:03;99774.88;;;-4.23;88.44
50282;BME280;36176;51.506;10.272;2023-04-06T04:12:30;99777.47;;;-4.23;87.89
50282;BME280;36176;51.506;10.272;2023-04-06T04:14:57;99779.16;;;-4.24;87.88
50282;BME280;36176;51.506;10.272;2023-04-06T04:17:24;99778.28;;;-4.24;87.72
50282;BME280;36176;51.506;10.272;2023-04-06T04:19:51;99783.47;;;-4.26;87.89
50282;BME280;36176;51.506;10.272;2023-04-06T04:22:18;99782.50;;;-4.30;87.59
50282;BME280;36176;51.506;10.272;2023-04-06T04:24:45;99779.06;;;-4.29;87.58
50282;BME280;36176;51.506;10.272;2023-04-06T04:27:12;99787.69;;;-4.30;87.71
50282;BME280;36176;51.506;10.272;2023-04-06T04:29:39;99794.59;;;-4.30;88.08
50282;BME280;36176;51.506;10.272;2023-04-06T04:32:06;99790.16;;;-4.36;87.48
50282;BME280;36176;51.506;10.272;2023-04-06T04:34:33;99790.09;;;-4.40;88.02
50282;BME280;36176;51.506;10.272;2023-04-06T04:37:00;99791.75;;;-4.44;88.29
50282;BME280;36176;51.506;10.272;2023-04-06T04:39:27;99789.16;;;-4.44;88.03
50282;BME280;36176;51.506;10.272;2023-04-06T04:41:54;99783.09;;;-4.46;87.78
50282;BME280;36176;51.506;10.272;2023-04-06T04:44:21;99790.84;;;-4.47;88.00
50282;BME280;36176;51.506;10.272;2023-04-06T04:46:48;99787.44;;;-4.43;88.98
50282;BME280;36176;51.506;10.272;2023-04-06T04:49:17;99788.34;;;-4.41;89.04
50282;BME280;36176;51.506;10.272;2023-04-06T04:51:44;99784.06;;;-4.39;88.72
50282;BME280;36176;51.506;10.272;2023-04-06T04:54:11;99790.09;;;-4.40;89.29
50282;BME280;36176;51.506;10.272;2023-04-06T04:56:41;99797.03;;;-4.38;89.06
50282;BME280;36176;51.506;10.272;2023-04-06T04:59:08;99791.94;;;-4.33;89.16
50282;BME280;36176;51.506;10.272;2023-04-06T05:01:35;99785.09;;;-4.30;89.32
50282;BME280;36176;51.506;10.272;2023-04-06T05:04:20;99786.00;;;-4.28;89.31
50282;BME280;36176;51.506;10.272;2023-04-06T05:06:47;99783.50;;;-4.21;89.11
50282;BME280;36176;51.506;10.272;2023-04-06T05:09:14;99778.41;;;-4.18;88.42
50282;BME280;36176;51.506;10.272;2023-04-06T05:11:41;99778.41;;;-4.17;87.85
50282;BME280;36176;51.506;10.272;2023-04-06T05:14:09;99782.88;;;-4.08;88.38
50282;BME280;36176;51.506;10.272;2023-04-06T05:16:36;99787.28;;;-4.02;88.94
50282;BME280;36176;51.506;10.272;2023-04-06T05:19:03;99789.13;;;-3.95;88.72
50282;BME280;36176;51.506;10.272;2023-04-06T05:21:30;99789.28;;;-3.88;88.15
50282;BME280;36176;51.506;10.272;2023-04-06T05:23:58;99782.47;;;-3.79;88.07
50282;BME280;36176;51.506;10.272;2023-04-06T05:26:26;99785.19;;;-3.73;87.55
50282;BME280;36176;51.506;10.272;2023-04-06T05:28:52;99783.56;;;-3.65;87.48
50282;BME280;36176;51.506;10.272;2023-04-06T05:31:22;99785.41;;;-3.58;87.87
50282;BME280;36176;51.506;10.272;2023-04-06T05:33:49;99786.41;;;-3.48;88.37
50282;BME280;36176;51.506;10.272;2023-04-06T05:36:20;99782.19;;;-3.40;88.16
50282;BME280;36176;51.506;10.272;2023-04-06T05:38:47;99785.81;;;-3.29;87.68
50282;BME280;36176;51.506;10.272;2023-04-06T05:41:14;99793.78;;;-3.15;87.60
50282;BME280;36176;51.506;10.272;2023-04-06T05:43:42;99789.66;;;-2.99;87.71
50282;BME280;36176;51.506;10.272;2023-04-06T05:46:08;99781.16;;;-2.87;87.04
50282;BME280;36176;51.506;10.272;2023-04-06T05:48:36;99784.75;;;-2.74;86.65
50282;BME280;36176;51.506;10.272;2023-04-06T05:51:03;99789.25;;;-2.60;86.33
50282;BME280;36176;51.506;10.272;2023-04-06T05:53:32;99788.53;;;-2.45;86.73
50282;BME280;36176;51.506;10.272;2023-04-06T05:56:03;99790.41;;;-2.30;85.85
50282;BME280;36176;51.506;10.272;2023-04-06T05:58:30;99781.91;;;-2.15;85.82
50282;BME280;36176;51.506;10.272;2023-04-06T06:01:00;99790.69;;;-2.01;84.71
50282;BME280;36176;51.506;10.272;2023-04-06T06:03:27;99784.72;;;-1.87;84.85
50282;BME280;36176;51.506;10.272;2023-04-06T06:05:59;99782.28;;;-1.72;84.55
50282;BME280;36176;51.506;10.272;2023-04-06T06:08:27;99787.59;;;-1.55;84.69
50282;BME280;36176;51.506;10.272;2023-04-06T06:10:55;99777.28;;;-1.40;84.29
50282;BME280;36176;51.506;10.272;2023-04-06T06:13:23;99778.28;;;-1.19;83.97
50282;BME280;36176;51.506;10.272;2023-04-06T06:15:50;99781.22;;;-0.07;83.39
50282;BME280;36176;51.506;10.272;2023-04-06T06:18:17;99786.84;;;1.62;78.93
50282;BME280;36176;51.506;10.272;2023-04-06T06:20:44;99778.50;;;3.16;73.83
50282;BME280;36176;51.506;10.272;2023-04-06T06:23:11;99774.81;;;4.47;69.25
50282;BME280;36176;51.506;10.272;2023-04-06T06:25:38;99779.50;;;5.65;66.54
50282;BME280;36176;51.506;10.272;2023-04-06T06:28:05;99778.06;;;6.63;63.88
50282;BME280;36176;51.506;10.272;2023-04-06T06:30:33;99783.63;;;7.47;61.23
50282;BME280;36176;51.506;10.272;2023-04-06T06:33:02;99776.13;;;8.19;57.95
50282;BME280;36176;51.506;10.272;2023-04-06T06:35:30;99777.22;;;8.90;55.05
50282;BME280;36176;51.506;10.272;2023-04-06T06:37:57;99785.97;;;9.65;52.97
50282;BME280;36176;51.506;10.272;2023-04-06T06:40:26;99783.34;;;10.32;50.46
50282;BME280;36176;51.506;10.272;2023-04-06T06:42:54;99785.00;;;10.96;48.62
50282;BME280;36176;51.506;10.272;2023-04-06T06:45:21;99784.13;;;11.56;47.22
50282;BME280;36176;51.506;10.272;2023-04-06T06:47:48;99776.38;;;12.08;46.95
50282;BME280;36176;51.506;10.272;2023-04-06T06:50:15;58343.00;;;-145.31;100.00
50282;BME280;36176;51.506;10.272;2023-04-06T06:52:43;58343.00;;;-145.31;100.00
50282;BME280;36176;51.506;10.272;2023-04-06T06:55:10;58343.00;;;-145.31;100.00
50282;BME280;36176;51.506;10.272;2023-04-06T06:57:37;58343.00;;;-145.31;100.00
50282;BME280;36176;51.506;10.272;2023-04-06T07:00:05;58343.00;;;-145.31;100.00
50282;BME280;36176;51.506;10.272;2023-04-06T07:02:38;58343.00;;;-145.31;100.00
50282;BME280;36176;51.506;10.272;2023-04-06T07:05:05;58343.00;;;-145.31;100.00
50282;BME280;36176;51.506;10.272;2023-04-06T07:07:49;58343.00;;;-145.31;100.00
50282;BME280;36176;51.506;10.272;2023-04-06T07:10:16;99776.38;;;12.08;46.95
50282;BME280;36176;51.506;10.272;2023-04-06T07:12:43;99765.44;;;16.33;33.38
50282;BME280;36176;51.506;10.272;2023-04-06T07:15:10;99770.59;;;16.49;33.63
50282;BME280;36176;51.506;10.272;2023-04-06T07:17:37;99770.31;;;16.94;35.12
50282;BME280;36176;51.506;10.272;2023-04-06T07:20:04;99770.63;;;17.40;32.28
50282;BME280;36176;51.506;10.272;2023-04-06T07:22:31;99770.63;;;17.40;24.04
50282;BME280;36176;51.506;10.272;2023-04-06T07:24:58;99775.63;;;17.83;31.36
50282;BME280;36176;51.506;10.272;2023-04-06T07:27:25;99817.19;;;17.83;100.00
50282;BME280;36176;51.506;10.272;2023-04-06T07:29:52;58343.00;;;-145.31;100.00
50282;BME280;36176;51.506;10.272;2023-04-06T07:32:19;58343.00;;;-145.31;100.00
50282;BME280;36176;51.506;10.272;2023-04-06T07:34:46;58343.00;;;-145.31;100.00
50282;BME280;36176;51.506;10.272;2023-04-06T07:37:13;58343.00;;;-145.31;100.00
50282;BME280;36176;51.506;10.272;2023-04-06T07:39:40;58343.00;;;-145.31;100.00
50282;BME280;36176;51.506;10.272;2023-04-06T07:42:11;58343.00;;;-145.31;100.00
50282;BME280;36176;51.506;10.272;2023-04-06T07:44:38;58343.00;;;-145.31;100.00
50282;BME280;36176;51.506;10.272;2023-04-06T07:47:05;58343.00;;;-145.31;100.00
50282;BME280;36176;51.506;10.272;2023-04-06T07:49:32;58343.00;;;-145.31;100.00
50282;BME280;36176;51.506;10.272;2023-04-06T07:51:59;58343.00;;;-145.31;100.00
50282;BME280;36176;51.506;10.272;2023-04-06T07:54:27;58343.00;;;-145.31;100.00
50282;BME280;36176;51.506;10.272;2023-04-06T07:56:54;58343.00;;;-145.31;100.00
50282;BME280;36176;51.506;10.272;2023-04-06T07:59:20;58343.00;;;-145.31;100.00
50282;BME280;36176;51.506;10.272;2023-04-06T08:01:47;58343.00;;;-145.31;100.00
50282;BME280;36176;51.506;10.272;2023-04-06T08:04:14;58343.00;;;-145.31;100.00
50282;BME280;36176;51.506;10.272;2023-04-06T08:06:41;58343.00;;;-145.31;100.00
50282;BME280;36176;51.506;10.272;2023-04-06T08:09:08;58343.00;;;-145.31;100.00
50282;BME280;36176;51.506;10.272;2023-04-06T08:11:35;58343.00;;;-145.31;100.00
50282;BME280;36176;51.506;10.272;2023-04-06T08:14:02;58343.00;;;-145.31;100.00
50282;BME280;36176;51.506;10.272;2023-04-06T08:16:28;58343.00;;;-145.31;100.00
50282;BME280;36176;51.506;10.272;2023-04-06T08:18:56;58343.00;;;-145.31;100.00
50282;BME280;36176;51.506;10.272;2023-04-06T08:21:23;58343.00;;;-145.31;100.00
50282;BME280;36176;51.506;10.272;2023-04-06T08:23:50;58343.00;;;-145.31;100.00
50282;BME280;36176;51.506;10.272;2023-04-06T08:26:17;58343.00;;;-145.31;100.00
50282;BME280;36176;51.506;10.272;2023-04-06T08:28:44;58343.00;;;-145.31;100.00
50282;BME280;36176;51.506;10.272;2023-04-06T08:31:12;58343.00;;;-145.31;100.00
50282;BME280;36176;51.506;10.272;2023-04-06T08:33:39;58343.00;;;-145.31;100.00
50282;BME280;36176;51.506;10.272;2023-04-06T08:36:07;58343.00;;;-145.31;100.00
50282;BME280;36176;51.506;10.272;2023-04-06T08:38:35;58343.00;;;-145.31;100.00
50282;BME280;36176;51.506;10.272;2023-04-06T08:41:10;58343.00;;;-145.31;100.00
50282;BME280;36176;51.506;10.272;2023-04-06T08:43:42;58343.00;;;-145.31;100.00
50282;BME280;36176;51.506;10.272;2023-04-06T08:46:10;58343.00;;;-145.31;100.00
50282;BME280;36176;51.506;10.272;2023-04-06T08:48:41;58343.00;;;-145.31;100.00
50282;BME280;36176;51.506;10.272;2023-04-06T08:51:09;58343.00;;;-145.31;100.00
50282;BME280;36176;51.506;10.272;2023-04-06T08:53:36;58343.00;;;-145.31;100.00
50282;BME280;36176;51.506;10.272;2023-04-06T08:56:03;58343.00;;;-145.31;100.00
50282;BME280;36176;51.506;10.272;2023-04-06T08:58:34;58343.00;;;-145.31;100.00
50282;BME280;36176;51.506;10.272;2023-04-06T09:01:07;58343.00;;;-145.31;100.00
50282;BME280;36176;51.506;10.272;2023-04-06T09:03:39;58343.00;;;-145.31;100.00
50282;BME280;36176;51.506;10.272;2023-04-06T09:06:07;58343.00;;;-145.31;100.00
50282;BME280;36176;51.506;10.272;2023-04-06T09:08:35;58343.00;;;-145.31;100.00
50282;BME280;36176;51.506;10.272;2023-04-06T09:11:02;58343.00;;;-145.31;100.00
50282;BME280;36176;51.506;10.272;2023-04-06T09:13:30;58343.00;;;-145.31;100.00
50282;BME280;36176;51.506;10.272;2023-04-06T09:16:03;58343.00;;;-145.31;100.00
50282;BME280;36176;51.506;10.272;2023-04-06T09:18:31;58343.00;;;-145.31;100.00
50282;BME280;36176;51.506;10.272;2023-04-06T09:21:01;58343.00;;;-145.31;100.00
50282;BME280;36176;51.506;10.272;2023-04-06T09:23:29;58343.00;;;-145.31;100.00
50282;BME280;36176;51.506;10.272;2023-04-06T09:26:12;58343.00;;;-145.31;100.00
50282;BME280;36176;51.506;10.272;2023-04-06T09:31:08;58343.00;;;-145.31;100.00
50282;BME280;36176;51.506;10.272;2023-04-06T09:33:40;58343.00;;;-145.31;100.00
50282;BME280;36176;51.506;10.272;2023-04-06T09:36:07;58343.00;;;-145.31;100.00
50282;BME280;36176;51.506;10.272;2023-04-06T09:38:36;58343.00;;;-145.31;100.00
50282;BME280;36176;51.506;10.272;2023-04-06T09:41:03;58343.00;;;-145.31;100.00
50282;BME280;36176;51.506;10.272;2023-04-06T09:43:30;58343.00;;;-145.31;100.00
50282;BME280;36176;51.506;10.272;2023-04-06T09:45:57;58343.00;;;-145.31;100.00
50282;BME280;36176;51.506;10.272;2023-04-06T09:48:26;58343.00;;;-145.31;100.00
50282;BME280;36176;51.506;10.272;2023-04-06T09:50:58;58343.00;;;-145.31;100.00
50282;BME280;36176;51.506;10.272;2023-04-06T09:53:26;58343.00;;;-145.31;100.00
50282;BME280;36176;51.506;10.272;2023-04-06T09:55:54;58343.00;;;-145.31;100.00
50282;BME280;36176;51.506;10.272;2023-04-06T09:58:24;58343.00;;;-145.31;100.00
50282;BME280;36176;51.506;10.272;2023-04-06T10:01:01;58343.00;;;-145.31;100.00
50282;BME280;36176;51.506;10.272;2023-04-06T10:03:33;58343.00;;;-145.31;100.00
50282;BME280;36176;51.506;10.272;2023-04-06T10:06:05;58343.00;;;-145.31;100.00
50282;BME280;36176;51.506;10.272;2023-04-06T10:08:34;58343.00;;;-145.31;100.00
50282;BME280;36176;51.506;10.272;2023-04-06T10:11:03;58343.00;;;-145.31;100.00
50282;BME280;36176;51.506;10.272;2023-04-06T10:13:30;58343.00;;;-145.31;100.00
50282;BME280;36176;51.506;10.272;2023-04-06T10:15:56;58343.00;;;-145.31;100.00
50282;BME280;36176;51.506;10.272;2023-04-06T10:18:23;58343.00;;;-145.31;100.00
50282;BME280;36176;51.506;10.272;2023-04-06T10:20:51;58343.00;;;-145.31;100.00
50282;BME280;36176;51.506;10.272;2023-04-06T10:23:36;58343.00;;;-145.31;100.00
50282;BME280;36176;51.506;10.272;2023-04-06T10:26:03;58343.00;;;-145.31;100.00
50282;BME280;36176;51.506;10.272;2023-04-06T10:28:31;58343.00;;;-145.31;100.00
50282;BME280;36176;51.506;10.272;2023-04-06T10:31:00;58343.00;;;-145.31;100.00
50282;BME280;36176;51.506;10.272;2023-04-06T10:33:27;58343.00;;;-145.31;100.00
50282;BME280;36176;51.506;10.272;2023-04-06T10:35:54;58343.00;;;-145.31;100.00
50282;BME280;36176;51.506;10.272;2023-04-06T10:38:42;58343.00;;;-145.31;100.00
50282;BME280;36176;51.506;10.272;2023-04-06T10:41:09;58343.00;;;-145.31;100.00
50282;BME280;36176;51.506;10.272;2023-04-06T10:43:38;58343.00;;;-145.31;100.00
50282;BME280;36176;51.506;10.272;2023-04-06T10:46:06;58343.00;;;-145.31;100.00
50282;BME280;36176;51.506;10.272;2023-04-06T10:51:06;58343.00;;;-145.31;100.00
50282;BME280;36176;51.506;10.272;2023-04-06T10:53:34;58343.00;;;-145.31;100.00
50282;BME280;36176;51.506;10.272;2023-04-06T10:56:00;58343.00;;;-145.31;100.00
50282;BME280;36176;51.506;10.272;2023-04-06T10:58:29;58343.00;;;-145.31;100.00
50282;BME280;36176;51.506;10.272;2023-04-06T11:00:57;58343.00;;;-145.31;100.00
50282;BME280;36176;51.506;10.272;2023-04-06T11:03:24;58343.00;;;-145.31;100.00
50282;BME280;36176;51.506;10.272;2023-04-06T11:05:51;58343.00;;;-145.31;100.00
50282;BME280;36176;51.506;10.272;2023-04-06T11:08:30;58343.00;;;-145.31;100.00
50282;BME280;36176;51.506;10.272;2023-04-06T11:11:07;58343.00;;;-145.31;100.00
50282;BME280;36176;51.506;10.272;2023-04-06T11:13:39;58343.00;;;-145.31;100.00
50282;BME280;36176;51.506;10.272;2023-04-06T11:16:06;58343.00;;;-145.31;100.00
50282;BME280;36176;51.506;10.272;2023-04-06T11:18:33;58343.00;;;-145.31;100.00
50282;BME280;36176;51.506;10.272;2023-04-06T11:20:59;58343.00;;;-145.31;100.00
50282;BME280;36176;51.506;10.272;2023-04-06T11:23:26;58343.00;;;-145.31;100.00
50282;BME280;36176;51.506;10.272;2023-04-06T11:25:53;58343.00;;;-145.31;100.00
50282;BME280;36176;51.506;10.272;2023-04-06T11:28:20;58343.00;;;-145.31;100.00
50282;BME280;36176;51.506;10.272;2023-04-06T11:30:47;58343.00;;;-145.31;100.00
50282;BME280;36176;51.506;10.272;2023-04-06T11:33:20;58343.00;;;-145.31;100.00
50282;BME280;36176;51.506;10.272;2023-04-06T11:35:46;58343.00;;;-145.31;100.00
50282;BME280;36176;51.506;10.272;2023-04-06T11:38:13;58343.00;;;-145.31;100.00
50282;BME280;36176;51.506;10.272;2023-04-06T11:40:40;58343.00;;;-145.31;100.00
50282;BME280;36176;51.506;10.272;2023-04-06T11:43:10;58343.00;;;-145.31;100.00
50282;BME280;36176;51.506;10.272;2023-04-06T11:45:43;58343.00;;;-145.31;100.00
50282;BME280;36176;51.506;10.272;2023-04-06T11:48:19;58343.00;;;-145.31;100.00
50282;BME280;36176;51.506;10.272;2023-04-06T11:50:47;58343.00;;;-145.31;100.00
50282;BME280;36176;51.506;10.272;2023-04-06T11:53:15;58343.00;;;-145.31;100.00
50282;BME280;36176;51.506;10.272;2023-04-06T11:55:42;58343.00;;;-145.31;100.00
50282;BME280;36176;51.506;10.272;2023-04-06T11:58:11;58343.00;;;-145.31;100.00
50282;BME280;36176;51.506;10.272;2023-04-06T12:00:38;58343.00;;;-145.31;100.00
50282;BME280;36176;51.506;10.272;2023-04-06T12:03:05;58343.00;;;-145.31;100.00
50282;BME280;36176;51.506;10.272;2023-04-06T12:05:32;58343.00;;;-145.31;100.00
50282;BME280;36176;51.506;10.272;2023-04-06T12:07:59;58343.00;;;-145.31;100.00
50282;BME280;36176;51.506;10.272;2023-04-06T12:10:28;58343.00;;;-145.31;100.00
50282;BME280;36176;51.506;10.272;2023-04-06T12:12:55;58343.00;;;-145.31;100.00
50282;BME280;36176;51.506;10.272;2023-04-06T12:15:22;58343.00;;;-145.31;100.00
50282;BME280;36176;51.506;10.272;2023-04-06T12:17:49;58343.00;;;-145.31;100.00
50282;BME280;36176;51.506;10.272;2023-04-06T12:20:16;58343.00;;;-145.31;100.00
50282;BME280;36176;51.506;10.272;2023-04-06T12:22:51;58343.00;;;-145.31;100.00
50282;BME280;36176;51.506;10.272;2023-04-06T12:25:18;58343.00;;;-145.31;100.00
50282;BME280;36176;51.506;10.272;2023-04-06T12:27:45;58343.00;;;-145.31;100.00
50282;BME280;36176;51.506;10.272;2023-04-06T12:30:12;58343.00;;;-145.31;100.00
50282;BME280;36176;51.506;10.272;2023-04-06T12:32:39;58343.00;;;-145.31;100.00
50282;BME280;36176;51.506;10.272;2023-04-06T12:35:06;58343.00;;;-145.31;100.00
50282;BME280;36176;51.506;10.272;2023-04-06T12:37:35;58343.00;;;-145.31;100.00
50282;BME280;36176;51.506;10.272;2023-04-06T12:40:03;58343.00;;;-145.31;100.00
50282;BME280;36176;51.506;10.272;2023-04-06T12:42:30;58343.00;;;-145.31;100.00
50282;BME280;36176;51.506;10.272;2023-04-06T12:44:57;58343.00;;;-145.31;100.00
50282;BME280;36176;51.506;10.272;2023-04-06T12:47:25;58343.00;;;-145.31;100.00